• Join FlightAware (Why Join?)
  • Login
  • US Flag 
04:51PM EST


 

Airport Tracker/Info


-or-


 

Live Flight TrackerFlight Track Log ✈ N182BP ✈ 09-Sep-2013 ✈ KMIC - KMIC

Flight Track Log - Related Links

Times and Time Zones

All times are in EDT time to prevent confusion due to time zone crossing. See the N182BP flight status page for this flight to view local times or setup timezone preferences in your user account.

Time Position Orientation Groundspeed Altitude Reporting Facility
EDT Latitude Longitude Course Direction KTS MPH feet Rate Location/Type
09:30AM 40.0525 -90.8036 340° North 91 105 3,400  Level Chicago Center
09:31AM 40.0703 -90.8211 323° Northwest 85 98 3,900 480 Climbing Chicago Center
09:32AM 40.0917 -90.8403 326° Northwest 89 102 4,400 480 Climbing Chicago Center
09:33AM 40.1103 -90.8639 316° Northwest 92 106 4,900 420 Climbing Chicago Center
09:34AM 40.1333 -90.8822 329° Northwest 96 110 5,300 420 Climbing Chicago Center
09:36AM 40.1767 -90.8926 340° North  Level Estimated
09:36AM 40.1669 -90.8922 347° North 100 115 5,800  Level Chicago Center
09:37AM 40.1958 -90.9019 346° North 106 122 6,300 420 Climbing Chicago Center
09:38AM 40.2225 -90.9136 342° North 104 120 6,700 300 Climbing Chicago Center
09:39AM 40.2508 -90.9283 338° Northwest 105 121 7,000 360 Climbing Chicago Center
09:40AM 40.2858 -90.9392 347° North 104 120 7,500 360 Climbing Kansas City Center
09:41AM 40.3125 -90.9486 345° North 102 117 7,800 120 Climbing Kansas City Center
09:42AM 40.3411 -90.9581 346° North 102 117 7,800  Level Kansas City Center
09:43AM 40.3750 -90.9711 344° North 117 135 7,900  Climbing Kansas City Center
09:44AM 40.4097 -90.9864 341° North 130 150 7,900  Level Chicago Center
09:45AM 40.4408 -90.9989 343° North 124 143 7,900  Level Chicago Center
09:46AM 40.4775 -91.0139 343° North 129 148 7,900  Level Chicago Center
09:47AM 40.5153 -91.0214 351° North 135 155 7,900  Level Chicago Center
09:48AM 40.5608 -91.0225 359° North 136 157 7,900  Level Chicago Center
09:49AM 40.5972 -91.0256 356° North 133 153 7,900  Level Chicago Center
09:50AM 40.6303 -91.0458 335° Northwest 128 147 7,900  Level Chicago Center
09:51AM 40.6639 -91.0619 340° North 128 147 7,900  Level Chicago Center
09:52AM 40.6983 -91.0778 341° North 128 147 7,900  Level Chicago Center
09:53AM 40.7336 -91.0950 340° North 133 153 7,900  Level Chicago Center
09:54AM 40.7736 -91.1139 340° North 129 148 7,900  Level Chicago Center
09:55AM 40.8069 -91.1306 339° North 127 146 7,900  Level Chicago Center
09:56AM 40.8425 -91.1475 340° North 134 154 7,900  Level Chicago Center
09:57AM 40.8761 -91.1647 339° North 130 150 7,900  Level Chicago Center
09:58AM 40.9100 -91.1797 342° North 129 148 7,900  Level Chicago Center
09:59AM 40.9439 -91.1964 340° North 132 152 7,900  Level Chicago Center
10:00AM 40.9847 -91.2167 339° North 132 152 7,900  Level Chicago Center
10:01AM 41.0181 -91.2331 340° North 129 148 7,900  Level Chicago Center
10:02AM 41.0533 -91.2497 340° North 132 152 7,900  Level Chicago Center
10:03AM 41.0869 -91.2650 341° North 130 150 7,900  Level Chicago Center
10:04AM 41.1203 -91.2836 337° Northwest 130 150 7,900  Level Chicago Center
10:06AM 41.1542 -91.2992 341° North 130 150 7,900  Level Chicago Center
10:07AM 41.1944 -91.3194 339° North 129 148 7,900  Level Chicago Center
10:08AM 41.2286 -91.3356 340° North 129 148 7,900 -60 Level Chicago Center
10:09AM 41.2639 -91.3539 339° North 130 150 7,800 -60 Descending Chicago Center
10:10AM 41.2969 -91.3706 339° North 128 147 7,800  Level Chicago Center
10:11AM 41.3303 -91.3864 340° North 129 148 7,800  Level Chicago Center
10:12AM 41.3642 -91.4031 340° North 130 150 7,800  Level Chicago Center
10:13AM 41.4028 -91.4225 339° North 127 146 7,900  Climbing Chicago Center
10:14AM 41.4347 -91.4372 341° North 123 142 7,900  Level Chicago Center
10:15AM 41.4689 -91.4550 339° North 130 150 7,900  Level Chicago Center
10:16AM 41.5014 -91.4711 340° North 128 147 7,900  Level Chicago Center
10:17AM 41.5344 -91.4869 340° North 129 148 7,900  Level Chicago Center
10:18AM 41.5744 -91.5053 341° North 128 147 7,900  Level Chicago Center
10:19AM 41.6078 -91.5242 337° Northwest 130 150 7,900  Level Chicago Center
10:20AM 41.6408 -91.5411 339° North 130 150 7,900  Level Chicago Center
10:21AM 41.6742 -91.5572 340° North 128 147 7,900  Level Chicago Center
10:22AM 41.7072 -91.5728 341° North 126 145 7,900  Level Chicago Center
10:23AM 41.7478 -91.5936 339° North 132 152 7,900  Level Chicago Center
10:24AM 41.7803 -91.6092 340° North 128 147 7,900  Level Chicago Center
10:25AM 41.8142 -91.6261 340° North 131 151 7,900  Level Chicago Center
10:26AM 41.8458 -91.6422 339° North 125 144 7,900  Level Chicago Center
10:27AM 41.8789 -91.6592 339° North 127 146 7,900  Level Chicago Center
10:28AM 41.9169 -91.6772 341° North 122 140 7,900  Level Chicago Center
10:29AM 41.9497 -91.6939 339° North 126 145 7,900  Level Chicago Center
10:30AM 41.9822 -91.7108 339° North 126 145 7,900  Level Chicago Center
10:31AM 42.0144 -91.7281 338° Northwest 126 145 7,900  Level Chicago Center
10:32AM 42.0492 -91.7433 342° North 130 150 7,900  Level Chicago Center
10:33AM 42.0881 -91.7650 338° Northwest 129 148 7,900  Level Chicago Center
10:34AM 42.1214 -91.7808 341° North 129 148 7,900  Level Chicago Center
10:36AM 42.1533 -91.7981 338° Northwest 124 143 7,900  Level Chicago Center
10:37AM 42.1858 -91.8122 342° North 124 143 7,900  Level Chicago Center
10:38AM 42.2189 -91.8289 340° North 126 145 7,900  Level Chicago Center
10:39AM 42.2592 -91.8494 339° North 129 148 7,900  Level Chicago Center
10:40AM 42.2917 -91.8667 339° North 127 146 7,900  Level Chicago Center
10:41AM 42.3236 -91.8839 338° Northwest 125 144 7,900  Level Chicago Center
10:42AM 42.3547 -91.8994 340° North 123 142 7,900  Level Chicago Center
10:43AM 42.3872 -91.9158 340° North 123 142 7,900  Level Chicago Center
10:44AM 42.4278 -91.9347 341° North 126 145 7,900  Level Chicago Center
10:45AM 42.4594 -91.9528 337° Northwest 126 145 7,900  Level Chicago Center
10:46AM 42.4922 -91.9697 339° North 126 145 7,900  Level Chicago Center
10:47AM 42.5247 -91.9861 340° North 126 145 7,900  Level Chicago Center
10:48AM 42.5564 -92.0028 339° North 124 143 7,900  Level Chicago Center
10:49AM 42.5950 -92.0225 339° North 124 143 7,900  Level Chicago Center
10:50AM 42.6269 -92.0392 339° North 124 143 7,900  Level Chicago Center
10:51AM 42.6586 -92.0567 338° Northwest 124 143 7,900  Level Chicago Center
10:52AM 42.6906 -92.0728 340° North 123 142 7,900  Level Chicago Center
10:53AM 42.7228 -92.0892 340° North 124 143 7,900  Level Chicago Center
10:54AM 42.7617 -92.1097 339° North 125 144 7,900  Level Chicago Center
10:55AM 42.7942 -92.1278 338° Northwest 126 145 7,900  Level Chicago Center
10:56AM 42.8272 -92.1442 340° North 126 145 7,900  Level Chicago Center
10:57AM 42.8594 -92.1611 339° North 126 145 7,900  Level Chicago Center
10:58AM 42.8931 -92.1789 339° North 127 146 7,900  Level Chicago Center
10:59AM 42.9250 -92.1958 339° North 127 146 7,900  Level Chicago Center
11:00AM 42.9633 -92.2169 338° Northwest 126 145 7,900  Level Chicago Center
11:01AM 42.9944 -92.2333 339° North 123 142 7,900  Level Chicago Center
11:02AM 43.0256 -92.2508 338° Northwest 123 142 7,900  Level Chicago Center
11:03AM 43.0578 -92.2675 339° North 123 142 7,900  Level Chicago Center
11:04AM 43.0894 -92.2844 339° North 123 142 7,900  Level Chicago Center
11:06AM 43.1275 -92.3053 338° Northwest 123 142 7,900  Level Chicago Center
11:07AM 43.1600 -92.3217 340° North 124 143 7,900  Level Chicago Center
11:08AM 43.1908 -92.3386 338° Northwest 122 140 7,900  Level Chicago Center
11:09AM 43.2217 -92.3558 338° Northwest 121 139 7,900  Level Chicago Center
11:10AM 43.2531 -92.3717 340° North 121 139 7,900  Level Chicago Center
11:11AM 43.2914 -92.3928 338° Northwest 123 142 7,900  Level Chicago Center
11:12AM 43.3219 -92.4097 338° Northwest 121 139 7,900  Level Chicago Center
11:13AM 43.3528 -92.4261 339° North 121 139 7,900  Level Chicago Center
11:14AM 43.3844 -92.4419 340° North 120 138 7,900  Level Chicago Center
11:15AM 43.4161 -92.4592 338° Northwest 122 140 7,900  Level Chicago Center
11:16AM 43.4553 -92.4814 338° Northwest 125 144 7,900  Level Chicago Center
11:17AM 43.4861 -92.4950 342° North 122 140 7,900  Level Chicago Center
11:18AM 43.5175 -92.5144 336° Northwest 123 142 7,900  Level Chicago Center
11:19AM 43.5492 -92.5314 339° North 123 142 7,900  Level Chicago Center
11:20AM 43.5800 -92.5478 339° North 121 139 7,900  Level Chicago Center
11:21AM 43.6183 -92.5697 337° Northwest 123 142 7,900  Level Chicago Center
11:22AM 43.6494 -92.5853 340° North 122 140 7,900  Level Chicago Center
11:23AM 43.6811 -92.6039 337° Northwest 123 142 7,900  Level Chicago Center
11:24AM 43.7117 -92.6211 338° Northwest 122 140 7,900 -240 Level Chicago Center
11:25AM 43.7686 -92.6392 347° North 139 160 7,400 -420 Descending Minneapolis Center
11:26AM 43.8069 -92.6625 336° Northwest 141 162 6,900 -480 Descending Minneapolis Center
11:28AM 43.8386 -92.6778 341° North 145 167 6,500 -480 Descending Minneapolis Center
11:29AM 43.8833 -92.7031 338° Northwest 137 158 6,000 -300 Descending Minneapolis Center
11:30AM 43.9169 -92.7203 340° North 130 150 5,900 -60 Descending Minneapolis Center
11:31AM 43.9431 -92.7344 339° North 122 140 5,900  Level Minneapolis Center
11:32AM 43.9811 -92.7564 337° Northwest 121 139 5,900  Level Minneapolis Center
11:33AM 44.0153 -92.7739 340° North 123 142 5,900  Level Minneapolis Center
11:34AM 44.0469 -92.7914 338° Northwest 122 140 5,900  Level Minneapolis Center
11:35AM 44.0736 -92.8067 338° Northwest 123 142 5,900  Level Minneapolis Center
11:36AM 44.1125 -92.8275 339° North 121 139 5,900  Level Minneapolis Center
11:37AM 44.1386 -92.8417 339° North 121 139 5,900  Level Minneapolis Center
11:38AM 44.1783 -92.8631 339° North 124 143 5,900  Level Minneapolis Center
11:39AM 44.2133 -92.8828 338° Northwest 126 145 5,900  Level Minneapolis Center
11:40AM 44.2453 -92.9000 339° North 125 144 5,900  Level Minneapolis Center
11:41AM 44.2731 -92.9275 325° Northwest 113 130 5,900  Level Minneapolis Center
11:42AM 44.2958 -92.9558 318° Northwest 113 130 5,900 -180 Level Minneapolis Center
11:43AM 44.3219 -92.9889 318° Northwest 121 139 5,600 -420 Descending Minneapolis Center
11:44AM 44.3450 -93.0186 317° Northwest 127 146 5,100 -540 Descending Minneapolis Center
11:45AM 44.3750 -93.0619 314° West 129 148 4,600 -540 Descending Minneapolis Center
11:46AM 44.4008 -93.0992 314° West 133 153 4,100 -420 Descending Minneapolis Center
11:47AM 44.4261 -93.1367 313° West 133 153 3,800 -180 Descending Minneapolis Center
11:48AM 44.4481 -93.1728 310° West 122 140 3,800 -60 Level Minneapolis Center
11:50AM 44.4756 -93.2122 314° West 117 135 3,700  Descending Minneapolis Center
11:51AM 44.5019 -93.2497 315° West 114 131 3,900 60 Climbing Minneapolis Center
11:52AM 44.5297 -93.2883 315° West 117 135 3,900  Level Minneapolis Center
11:53AM 44.5531 -93.3206 315° West 117 135 4,000  Climbing Minneapolis Center
11:54AM 44.5764 -93.3528 315° West 118 136 3,900 -60 Descending Minneapolis Center
11:55AM 44.5997 -93.3847 316° Northwest 117 135 3,900  Level Minneapolis Center
11:56AM 44.6231 -93.4181 315° West 119 137 3,900  Level Minneapolis Center
11:57AM 44.6469 -93.4519 315° West 122 140 3,900  Level Minneapolis Center
11:58AM 44.6711 -93.4856 315° West 121 139 3,900  Level Minneapolis Center
11:59AM 44.6997 -93.5250 316° Northwest 120 138 4,000  Climbing Minneapolis Center
12:00PM 44.7297 -93.5536 326° Northwest 130 150 4,000  Level Minneapolis Center
12:01PM 44.7594 -93.5828 325° Northwest 130 150 4,000  Level Minneapolis Center
12:02PM 44.7889 -93.6125 324° Northwest 130 150 4,000 -60 Level Minneapolis Center
12:03PM 44.8131 -93.6364 325° Northwest 132 152 3,900 -300 Descending Minneapolis Center
12:04PM 44.8558 -93.6608 338° Northwest 143 165 3,500 -420 Descending Minneapolis Center
12:05PM 44.8994 -93.6603 North 155 178 3,100 -300 Descending Minneapolis Center
12:06PM 44.9494 -93.6558 North 150 173 2,900 -120 Descending Minneapolis Center
12:07PM 44.9878 -93.6578 358° North 139 160 2,900  Level Minneapolis Center
12:08PM 45.0253 -93.6569 North 135 155 2,900  Level Minneapolis Center
12:09PM 45.0631 -93.6536 North 136 157 2,900  Level Minneapolis Center
12:10PM 45.1006 -93.6553 358° North 135 155 2,900  Level Minneapolis Center
12:11PM 45.1386 -93.6500 North 137 158 2,900  Level Minneapolis Center
12:12PM 45.1661 -93.5992 52° Northeast 136 157 2,900  Level Minneapolis Center
12:13PM 45.1858 -93.5544 58° Northeast 135 155 2,900 -120 Level Minneapolis Center
12:14PM 45.1994 -93.5100 66° East 127 146 2,700 -300 Descending Minneapolis Center
12:15PM 45.1792 -93.4836 137° Southeast 100 115 2,400 -180 Descending Minneapolis Center
12:17PM 45.1597 -93.4650 146° Southeast 85 98 2,300  Descending Minneapolis Center
12:18PM 45.1397 -93.4428 142° Southeast 76 87 2,400 -120 Climbing Minneapolis Center
12:19PM 45.1178 -93.4172 141° Southeast 87 100 2,100 -480 Descending Minneapolis Center
12:20PM 45.0989 -93.3950 140° Southeast 89 102 1,500 -480 Descending Minneapolis Center
12:21PM 45.0808 -93.3756 143° Southeast 83 96 1,200  Descending Minneapolis Center
12:23PM 45.0285 -93.3439 157° South  Level FlightAware Approximate
12:30PM 44.8089 -93.2116 157° South  Level FlightAware Approximate
12:31PM 44.7775 -93.1928 157° South  Level FlightAware Approximate
12:32PM 44.7461 -93.1740 157° South  Level FlightAware Approximate
12:33PM 44.7147 -93.1553 157° South  Level FlightAware Approximate
12:34PM 44.6833 -93.1365 157° South  Level FlightAware Approximate
12:35PM 44.6518 -93.1178 157° South  Level FlightAware Approximate
12:36PM 44.6803 -93.1339 338° Northwest  Level FlightAware Approximate
12:37PM 44.7119 -93.1520 338° Northwest  Level FlightAware Approximate
12:38PM 44.7435 -93.1701 338° Northwest  Level FlightAware Approximate
12:39PM 44.7753 -93.1876 340° North  Level FlightAware Approximate
12:40PM 44.8074 -93.2037 340° North  Level FlightAware Approximate
12:41PM 44.8394 -93.2205 336° Northwest  Level FlightAware Approximate
12:42PM 44.8705 -93.2402 336° Northwest  Level FlightAware Approximate
12:43PM 44.9016 -93.2600 336° Northwest  Level FlightAware Approximate
12:44PM 44.9327 -93.2798 336° Northwest  Level FlightAware Approximate
12:44PM 45.0500 -93.2833 90° East 88 101 2,800  Level Minneapolis TRACON
12:45PM 44.9638 -93.2996 336° Northwest  Level FlightAware Approximate
12:46PM 44.9949 -93.3194 336° Northwest  Level FlightAware Approximate
12:46PM 45.0228 -93.2317 127° Southeast 112 129 2,900  Level Minneapolis Center
12:47PM 45.0263 -93.3382 341° North  Level FlightAware Approximate
12:47PM 45.0047 -93.1931 123° Southeast 118 136 2,900  Level Minneapolis Center
12:48PM 45.0500 -93.3500 341° North  Level FlightAware Approximate
12:48PM 44.9908 -93.1628 123° Southeast 116 133 2,900  Level Minneapolis Center
12:49PM 44.9678 -93.1169 125° Southeast 120 138 2,900  Level Minneapolis Center
12:50PM 44.9492 -93.0803 126° Southeast 115 132 2,900  Level Minneapolis Center
12:51PM 44.9258 -93.0367 127° Southeast 117 135 2,900  Level Minneapolis Center
12:52PM 44.9058 -93.0008 128° Southeast 116 133 2,900  Level Minneapolis Center
12:53PM 44.8853 -92.9644 129° Southeast 118 136 2,900  Level Minneapolis Center
12:54PM 44.8583 -92.9486 157° South 110 127 2,900  Level Minneapolis Center
12:55PM 44.8292 -92.9494 181° South 104 120 2,900  Level Minneapolis Center
12:56PM 44.7994 -92.9394 167° South 109 125 2,900  Level Minneapolis Center
12:57PM 44.7647 -92.9306 170° South 105 121 2,900 180 Level Minneapolis Center
12:58PM 44.7361 -92.9219 168° South 104 120 3,300 360 Climbing Minneapolis Center
12:59PM 44.7089 -92.9156 171° South 99 114 3,700 360 Climbing Minneapolis Center
01:00PM 44.6811 -92.9064 167° South 102 117 4,100 360 Climbing Minneapolis Center
01:01PM 44.6519 -92.8975 168° South 106 122 4,500 420 Climbing Minneapolis Center
01:02PM 44.6228 -92.8892 169° South 109 125 5,000 480 Climbing Minneapolis Center
01:03PM 44.5956 -92.8844 173° South 99 114 5,500 480 Climbing Minneapolis Center
01:04PM 44.5644 -92.8778 171° South 96 110 6,100 480 Climbing Minneapolis Center
01:05PM 44.5381 -92.8722 171° South 97 112 6,600 480 Climbing Minneapolis Center
01:06PM 44.5122 -92.8672 172° South 94 108 7,100 480 Climbing Minneapolis Center
01:07PM 44.4867 -92.8583 166° South 94 108 7,600 480 Climbing Minneapolis Center
01:08PM 44.4619 -92.8519 170° South 91 105 8,100 480 Climbing Minneapolis Center
01:09PM 44.4381 -92.8472 172° South 87 100 8,600 360 Climbing Minneapolis Center
01:10PM 44.4097 -92.8408 171° South 85 98 8,900 120 Climbing Minneapolis Center
01:12PM 44.3811 -92.8406 180° South 101 116 8,900  Level Minneapolis Center
01:13PM 44.3494 -92.8289 165° South 117 135 8,900  Level Minneapolis Center
01:14PM 44.3178 -92.8194 168° South 110 127 9,000  Climbing Minneapolis Center
01:15PM 44.2850 -92.8122 171° South 111 128 9,000  Level Minneapolis Center
01:16PM 44.2544 -92.8047 170° South 113 130 9,000  Level Minneapolis Center
01:17PM 44.2217 -92.7964 170° South 112 129 9,000  Level Minneapolis Center
01:18PM 44.1897 -92.7886 170° South 110 127 9,000  Level Minneapolis Center
01:19PM 44.1597 -92.7817 171° South 111 128 9,000  Level Minneapolis Center
01:20PM 44.1281 -92.7739 170° South 108 124 9,000  Level Minneapolis Center
01:21PM 44.0975 -92.7667 170° South 114 131 9,000  Level Minneapolis Center
01:22PM 44.0661 -92.7592 170° South 108 124 9,000  Level Minneapolis Center
01:23PM 44.0289 -92.7497 170° South 109 125 9,000  Level Minneapolis Center
01:24PM 43.9994 -92.7425 170° South 108 124 9,000  Level Minneapolis Center
01:25PM 43.9675 -92.7344 170° South 108 124 9,000  Level Minneapolis Center
01:26PM 43.9389 -92.7272 170° South 106 122 9,000  Level Minneapolis Center
01:27PM 43.9078 -92.7197 170° South 106 122 9,000  Level Minneapolis Center
01:29PM 43.8717 -92.7097 169° South 107 123 9,000  Level Minneapolis Center
01:30PM 43.8394 -92.7036 172° South 109 125 9,000  Level Minneapolis Center
01:31PM 43.8100 -92.6958 169° South 109 125 9,000  Level Minneapolis Center
01:32PM 43.7775 -92.6886 171° South 110 127 9,000  Level Minneapolis Center
01:33PM 43.7472 -92.6814 170° South 111 128 9,000  Level Minneapolis Center
01:34PM 43.7142 -92.6739 171° South 112 129 9,000  Level Minneapolis Center
01:35PM 43.6844 -92.6661 169° South 110 127 9,000  Level Minneapolis Center
01:36PM 43.6514 -92.6581 170° South 112 129 9,000  Level Minneapolis Center
01:37PM 43.6178 -92.6511 171° South 115 132 9,000  Level Minneapolis Center
01:38PM 43.5944 -92.6447 169° South 107 123 9,000  Level Minneapolis Center
01:39PM 43.5572 -92.6350 169° South 108 124 9,000  Level Minneapolis Center
01:40PM 43.5267 -92.6286 171° South 110 127 9,000  Level Minneapolis Center
01:41PM 43.4936 -92.6219 172° South 112 129 9,000  Level Minneapolis Center
01:42PM 43.4628 -92.6131 168° South 114 131 9,000  Level Minneapolis Center
01:43PM 43.4367 -92.6081 172° South 115 132 9,000  Level Minneapolis Center
01:44PM 43.3975 -92.5989 170° South 117 135 9,000  Level Minneapolis Center
01:45PM 43.3642 -92.5908 170° South 113 130 9,000  Level Minneapolis Center
01:46PM 43.3331 -92.5839 171° South 114 131 9,000  Level Minneapolis Center
01:47PM 43.3003 -92.5753 169° South 113 130 9,000  Level Minneapolis Center
01:48PM 43.2753 -92.5675 167° South 111 128 9,000  Level Minneapolis Center
01:49PM 43.2347 -92.5639 176° South 117 135 9,000  Level Minneapolis Center
01:50PM 43.2042 -92.5539 167° South 116 133 9,000  Level Minneapolis Center
01:51PM 43.1733 -92.5475 171° South 113 130 9,000 -120 Level Minneapolis Center
01:52PM 43.1425 -92.5408 171° South 113 130 8,800 -360 Descending Minneapolis Center
01:53PM 43.1078 -92.5322 170° South 123 142 8,300 -540 Descending Minneapolis Center
01:54PM 43.0678 -92.5225 170° South 127 146 7,800 -480 Descending Chicago Center
01:55PM 43.0317 -92.5156 172° South 131 151 7,400 -420 Descending Chicago Center
01:56PM 42.9964 -92.5053 168° South 131 151 7,000 -540 Descending Chicago Center
01:57PM 42.9547 -92.4964 171° South 129 148 6,400 -540 Descending Chicago Center
01:58PM 42.9197 -92.4881 170° South 129 148 6,000 -360 Descending Chicago Center
01:59PM 42.8856 -92.4792 169° South 128 147 5,700 -360 Descending Chicago Center
02:00PM 42.8522 -92.4706 169° South 126 145 5,300 -360 Descending Chicago Center
02:01PM 42.8192 -92.4628 170° South 124 143 5,000 -360 Descending Chicago Center
02:03PM 42.7783 -92.4506 168° South 125 144 4,600 -480 Descending Chicago Center
02:04PM 42.7436 -92.4383 166° South 127 146 4,100 -480 Descending Chicago Center
02:05PM 42.7089 -92.4236 163° South 129 148 3,700 -420 Descending Chicago Center
02:06PM 42.6739 -92.4100 164° South 131 151 3,300 -540 Descending Chicago Center
02:07PM 42.6311 -92.3953 166° South 132 152 2,600 -780 Descending Chicago Center
02:08PM 42.5967 -92.3947 179° South 131 151 1,700 -660 Descending Chicago Center
02:09PM 42.5692 -92.3975 184° South 125 144 1,300 -420 Descending Chicago Center
02:11PM 42.5500 -92.4000 180° South  Level FlightAware Approximate
02:18PM 42.7543 -92.4745 180° South  Level Estimated
02:19PM 42.7835 -92.4852 180° South  Level Estimated
02:20PM 42.8126 -92.4959 180° South  Level Estimated
02:21PM 42.8418 -92.5066 180° South  Level Estimated
02:22PM 42.8710 -92.5174 180° South  Level Estimated
02:23PM 42.9002 -92.5281 180° South  Level Estimated
02:24PM 42.9293 -92.5388 180° South  Level Estimated
02:25PM 42.9585 -92.5496 180° South  Level Estimated
02:26PM 42.9877 -92.5603 180° South  Level Estimated
02:27PM 43.0168 -92.5711 180° South  Level Estimated
02:28PM 43.0460 -92.5819 180° South  Level Estimated
02:29PM 43.0752 -92.5927 180° South  Level Estimated
02:30PM 43.1044 -92.6035 180° South  Level Estimated
02:31PM 43.1335 -92.6143 180° South  Level Estimated
02:32PM 43.1627 -92.6251 180° South  Level Estimated
02:33PM 43.1919 -92.6359 180° South  Level Estimated
02:34PM 43.2210 -92.6468 180° South  Level Estimated
02:35PM 43.2502 -92.6576 180° South  Level Estimated
02:36PM 43.2793 -92.6685 180° South  Level Estimated
02:37PM 43.3085 -92.6794 180° South  Level Estimated
02:38PM 43.3377 -92.6902 180° South  Level Estimated
02:39PM 43.3668 -92.7011 180° South  Level Estimated
02:40PM 43.3960 -92.7120 180° South  Level Estimated
02:41PM 43.4251 -92.7230 180° South  Level Estimated
02:42PM 43.4543 -92.7339 180° South  Level Estimated
02:43PM 43.4835 -92.7448 180° South  Level Estimated
02:44PM 43.5126 -92.7558 180° South  Level Estimated
02:45PM 43.5418 -92.7667 180° South  Level Estimated
02:46PM 43.5709 -92.7777 180° South  Level Estimated
02:47PM 43.6001 -92.7887 180° South  Level Estimated
02:48PM 43.6292 -92.7997 180° South  Level Estimated
02:49PM 43.6584 -92.8107 180° South  Level Estimated
02:50PM 43.6875 -92.8217 180° South  Level Estimated
02:51PM 43.7166 -92.8327 180° South  Level Estimated
02:52PM 43.7458 -92.8437 180° South  Level Estimated
02:53PM 43.7749 -92.8548 180° South  Level Estimated
02:54PM 43.8041 -92.8658 180° South  Level Estimated
02:55PM 43.8332 -92.8769 180° South  Level Estimated
02:56PM 43.8624 -92.8880 180° South  Level Estimated
02:57PM 43.8915 -92.8991 180° South  Level Estimated
02:58PM 43.9206 -92.9102 180° South  Level Estimated
02:59PM 43.9498 -92.9213 180° South  Level Estimated
03:00PM 43.9789 -92.9324 180° South  Level Estimated
03:01PM 44.0081 -92.9435 180° South  Level Estimated
03:02PM 44.0372 -92.9547 180° South  Level Estimated
03:03PM 44.0663 -92.9658 180° South  Level Estimated
03:04PM 44.0955 -92.9770 180° South  Level Estimated
03:05PM 44.1246 -92.9881 180° South  Level Estimated
03:06PM 44.1537 -92.9993 180° South  Level Estimated
03:07PM 44.1828 -93.0105 180° South  Level Estimated
03:08PM 44.2120 -93.0217 180° South  Level Estimated
03:09PM 44.2411 -93.0330 180° South  Level Estimated
03:10PM 44.2702 -93.0442 180° South  Level Estimated
03:11PM 44.2994 -93.0554 180° South  Level Estimated
03:12PM 44.3285 -93.0667 180° South  Level Estimated
03:13PM 44.3576 -93.0779 180° South  Level Estimated
03:14PM 44.3867 -93.0892 180° South  Level Estimated
03:15PM 44.4158 -93.1005 180° South  Level Estimated
03:16PM 44.4450 -93.1118 180° South  Level Estimated
03:17PM 44.4741 -93.1231 180° South  Level Estimated
03:18PM 44.5032 -93.1344 180° South  Level Estimated
03:19PM 44.5323 -93.1457 180° South  Level Estimated
03:20PM 44.5614 -93.1571 180° South  Level Estimated
03:21PM 44.5905 -93.1684 180° South  Level Estimated
03:22PM 44.6196 -93.1798 180° South  Level Estimated
03:23PM 44.6488 -93.1912 180° South  Level Estimated
03:24PM 44.6779 -93.2026 180° South  Level Estimated
03:25PM 44.7070 -93.2140 180° South  Level Estimated
03:26PM 44.7361 -93.2254 180° South  Level Estimated
03:27PM 44.7652 -93.2368 180° South  Level Estimated
03:28PM 44.7943 -93.2482 180° South  Level Estimated